createdAt,value
2022-09-17T00:01:00.316Z,5.50
2022-09-17T00:06:09.511Z,4.63
2022-09-17T00:11:24.046Z,5.53
2022-09-17T00:16:36.116Z,4.45
2022-09-17T00:21:43.341Z,4.95
2022-09-17T00:26:50.186Z,4.70
2022-09-17T00:31:55.882Z,5.70
2022-09-17T00:42:12.283Z,5.70
2022-09-17T00:47:32.903Z,6.75
2022-09-17T00:53:07.019Z,6.43
2022-09-17T00:58:14.919Z,6.90
2022-09-17T01:03:21.010Z,5.97
2022-09-17T01:08:41.140Z,6.60
2022-09-17T01:14:13.467Z,5.93
2022-09-17T01:19:45.684Z,6.07
2022-09-17T01:25:05.679Z,6.18
2022-09-17T01:30:30.879Z,6.82
2022-09-17T01:35:52.244Z,9.30
2022-09-17T01:41:11.141Z,10.48
2022-09-17T01:46:32.245Z,10.02
2022-09-17T01:51:44.960Z,14.00
2022-09-17T01:56:58.818Z,9.80
2022-09-17T02:02:13.713Z,9.70
2022-09-17T02:07:25.456Z,11.95
2022-09-17T02:12:36.852Z,9.65
2022-09-17T02:17:58.477Z,10.18
2022-09-17T02:23:11.151Z,9.35
2022-09-17T02:28:27.060Z,11.63
2022-09-17T02:44:02.295Z,11.82
2022-09-17T02:49:17.280Z,10.20
2022-09-17T02:54:38.867Z,7.40
2022-09-17T03:00:04.625Z,8.20
2022-09-17T03:05:12.028Z,11.75
2022-09-17T03:10:17.927Z,7.30
2022-09-17T03:15:24.023Z,10.02
2022-09-17T03:20:30.234Z,15.95
2022-09-17T03:25:36.258Z,14.52
2022-09-17T03:30:42.313Z,13.20
2022-09-17T03:35:49.376Z,16.42
2022-09-17T03:41:02.950Z,21.00
2022-09-17T03:46:09.479Z,18.85
2022-09-17T03:51:15.684Z,20.10
2022-09-17T03:56:22.297Z,21.42
2022-09-17T04:01:28.942Z,17.23
2022-09-17T04:06:35.165Z,17.90
2022-09-17T04:11:41.252Z,15.52
2022-09-17T04:16:50.504Z,21.58
2022-09-17T04:21:56.439Z,17.17
2022-09-17T04:27:02.372Z,14.57
2022-09-17T04:32:08.410Z,16.50
2022-09-17T04:37:15.494Z,14.88
2022-09-17T04:42:21.258Z,15.90
2022-09-17T04:47:27.695Z,17.15
2022-09-17T04:52:33.974Z,18.02
2022-09-17T04:57:40.622Z,13.70
2022-09-17T05:02:50.689Z,13.07
2022-09-17T05:07:56.319Z,13.05
2022-09-17T05:18:07.582Z,11.98
2022-09-17T05:23:13.145Z,12.75
2022-09-17T05:33:24.116Z,13.65
2022-09-17T05:38:30.537Z,14.52
2022-09-17T05:43:39.447Z,13.07
2022-09-17T05:48:45.959Z,13.38
2022-09-17T05:53:52.051Z,13.20
2022-09-17T05:59:00.872Z,12.95
2022-09-17T06:04:06.905Z,10.70
2022-09-17T06:09:13.442Z,12.90
2022-09-17T06:14:19.553Z,11.60
2022-09-17T06:19:26.182Z,9.52
2022-09-17T06:24:31.851Z,9.73
2022-09-17T06:29:37.847Z,11.32
2022-09-17T06:34:44.151Z,12.32
2022-09-17T06:39:50.489Z,11.95
2022-09-17T06:44:57.450Z,11.93
2022-09-17T06:50:04.748Z,15.85
2022-09-17T06:55:11.006Z,18.73
2022-09-17T07:00:17.850Z,18.38
2022-09-17T07:05:24.128Z,17.48
2022-09-17T07:10:30.292Z,17.92
2022-09-17T07:15:36.222Z,17.42
2022-09-17T07:20:42.167Z,17.20
2022-09-17T07:25:53.049Z,13.50
2022-09-17T07:30:59.496Z,17.23
2022-09-17T07:36:08.861Z,16.58
2022-09-17T07:41:17.728Z,15.20
2022-09-17T07:46:23.746Z,15.68
2022-09-17T07:51:30.676Z,14.73
2022-09-17T07:56:37.267Z,13.80
2022-09-17T08:01:43.053Z,14.80
2022-09-17T08:06:52.412Z,14.07
2022-09-17T08:11:58.356Z,15.27
2022-09-17T08:17:04.261Z,16.23
2022-09-17T08:22:10.144Z,13.75
2022-09-17T08:27:16.130Z,13.02
2022-09-17T08:32:21.952Z,13.55
2022-09-17T08:42:41.187Z,12.05
2022-09-17T08:47:48.437Z,13.73
2022-09-17T08:53:07.994Z,13.07
2022-09-17T08:58:32.247Z,12.40
2022-09-17T09:04:16.540Z,11.32
2022-09-17T09:09:27.612Z,11.80
2022-09-17T09:14:50.312Z,12.40
2022-09-17T09:19:56.679Z,12.20
2022-09-17T09:25:26.128Z,12.23
2022-09-17T09:30:57.824Z,13.15
2022-09-17T09:36:04.184Z,12.40
2022-09-17T09:41:30.048Z,13.18
2022-09-17T09:51:52.779Z,15.63
2022-09-17T09:57:13.211Z,13.80
2022-09-17T10:02:18.984Z,12.18
2022-09-17T10:07:24.669Z,12.50
2022-09-17T10:12:30.580Z,14.77
2022-09-17T10:17:37.055Z,15.40
2022-09-17T10:22:47.857Z,16.85
2022-09-17T10:27:54.407Z,29.20
2022-09-17T10:33:25.200Z,17.83
2022-09-17T10:38:45.918Z,14.15
2022-09-17T10:43:52.955Z,14.43
2022-09-17T10:49:37.638Z,14.73
2022-09-17T10:54:59.118Z,14.48
2022-09-17T11:00:20.863Z,13.98
2022-09-17T11:05:36.118Z,12.93
2022-09-17T11:10:53.384Z,14.65
2022-09-17T11:16:12.300Z,16.48
2022-09-17T11:21:59.159Z,17.48
2022-09-17T11:27:21.498Z,23.48
2022-09-17T11:32:36.348Z,21.45
2022-09-17T11:38:08.601Z,17.98
2022-09-17T11:43:38.381Z,19.27
2022-09-17T11:49:07.385Z,23.17
2022-09-17T11:54:33.913Z,18.95
2022-09-17T12:00:03.935Z,19.25
2022-09-17T12:05:32.327Z,21.13
2022-09-17T12:10:43.154Z,18.40
2022-09-17T12:15:54.515Z,22.40
2022-09-17T12:21:04.095Z,20.55
2022-09-17T12:26:26.170Z,23.20
2022-09-17T12:31:48.152Z,25.42
2022-09-17T12:37:31.262Z,27.00
2022-09-17T12:43:04.602Z,29.15
2022-09-17T12:48:38.326Z,30.98
2022-09-17T12:54:12.928Z,28.88
2022-09-17T12:59:24.554Z,29.48
2022-09-17T13:05:01.547Z,30.70
2022-09-17T13:10:20.182Z,29.00
2022-09-17T13:15:49.427Z,28.30
2022-09-17T13:21:26.605Z,28.92
2022-09-17T13:26:41.851Z,30.80
2022-09-17T13:31:50.466Z,27.95
2022-09-17T13:37:06.200Z,28.15
2022-09-17T13:47:40.817Z,30.92
2022-09-17T13:52:53.273Z,34.28
2022-09-17T13:57:59.544Z,36.40
2022-09-17T14:03:32.825Z,38.30
2022-09-17T14:08:53.994Z,31.55
2022-09-17T14:14:05.979Z,46.05
2022-09-17T14:19:42.512Z,33.58
2022-09-17T14:24:55.030Z,38.80
2022-09-17T14:30:16.290Z,35.45
2022-09-17T14:35:34.565Z,38.20
2022-09-17T14:40:47.426Z,36.03
2022-09-17T14:45:55.698Z,34.28
2022-09-17T14:51:20.482Z,30.02
2022-09-17T14:56:26.188Z,31.73
2022-09-17T15:06:38.296Z,32.15
2022-09-17T15:16:56.964Z,31.60
2022-09-17T15:22:18.311Z,31.45
2022-09-17T15:27:50.518Z,30.40
2022-09-17T15:32:58.826Z,33.10
2022-09-17T15:38:23.220Z,36.70
2022-09-17T15:43:31.577Z,40.15
2022-09-17T15:48:41.166Z,34.75
2022-09-17T15:54:12.163Z,33.55
2022-09-17T15:59:27.769Z,33.28
2022-09-17T16:04:35.594Z,37.67
2022-09-17T16:09:45.650Z,44.35
2022-09-17T16:15:04.783Z,43.17
2022-09-17T16:20:21.527Z,40.15
2022-09-17T16:25:30.650Z,37.95
2022-09-17T16:30:36.663Z,41.28
2022-09-17T16:35:42.351Z,39.17
2022-09-17T16:40:49.212Z,38.88
2022-09-17T16:46:06.242Z,38.47
2022-09-17T16:51:13.650Z,36.35
2022-09-17T16:56:19.621Z,36.85
2022-09-17T17:01:25.313Z,33.42
2022-09-17T17:06:31.374Z,33.85
2022-09-17T17:11:37.319Z,35.03
2022-09-17T17:16:45.234Z,35.20
2022-09-17T17:21:54.450Z,34.15
2022-09-17T17:27:00.302Z,34.15
2022-09-17T17:32:07.517Z,29.55
2022-09-17T17:37:15.866Z,31.60
2022-09-17T17:42:22.068Z,29.20
2022-09-17T17:47:28.066Z,28.70
2022-09-17T17:52:33.987Z,29.95
2022-09-17T17:57:40.148Z,26.73
2022-09-17T18:02:46.360Z,27.83
2022-09-17T18:07:52.149Z,26.52
2022-09-17T18:18:05.014Z,25.98
2022-09-17T18:23:12.155Z,23.90
2022-09-17T18:28:17.890Z,23.42
2022-09-17T18:33:26.921Z,23.35
2022-09-17T18:38:34.117Z,20.77
2022-09-17T18:43:39.994Z,21.13
2022-09-17T18:48:47.216Z,21.48
2022-09-17T18:53:54.710Z,22.83
2022-09-17T18:59:05.662Z,22.75
2022-09-17T19:04:14.006Z,20.42
2022-09-17T19:09:20.343Z,21.50
2022-09-17T19:14:26.155Z,22.67
2022-09-17T19:19:31.797Z,23.67
2022-09-17T19:29:42.519Z,22.00
2022-09-17T19:39:53.727Z,22.05
2022-09-17T19:44:59.386Z,23.00
2022-09-17T19:55:12.965Z,21.25
2022-09-17T20:00:19.018Z,23.65
2022-09-17T20:05:24.885Z,22.42
2022-09-17T20:10:33.697Z,23.10
2022-09-17T20:15:39.331Z,22.48
2022-09-17T20:20:45.345Z,23.08
2022-09-17T20:25:56.946Z,23.73
2022-09-17T20:31:15.205Z,21.95
2022-09-17T20:36:23.437Z,24.55
2022-09-17T20:41:33.268Z,26.48
2022-09-17T20:46:39.202Z,24.73
2022-09-17T20:51:45.118Z,24.35
2022-09-17T21:01:57.627Z,25.50
2022-09-17T21:07:03.546Z,24.95
2022-09-17T21:12:09.469Z,26.00
2022-09-17T21:17:15.247Z,26.38
2022-09-17T21:22:21.154Z,26.45
2022-09-17T21:27:26.794Z,25.85
2022-09-17T21:37:37.759Z,29.42
2022-09-17T21:42:43.382Z,28.13
2022-09-17T21:47:49.312Z,28.00
2022-09-17T21:52:54.875Z,29.95
2022-09-17T21:58:01.165Z,29.70
2022-09-17T22:03:07.694Z,29.80
2022-09-17T22:08:13.287Z,31.05
2022-09-17T22:13:19.204Z,30.70
2022-09-17T22:18:24.776Z,30.40
2022-09-17T22:23:30.365Z,34.08
2022-09-17T22:28:37.164Z,30.50
2022-09-17T22:33:46.442Z,32.75
2022-09-17T22:38:54.723Z,31.83
2022-09-17T22:44:05.854Z,33.80
2022-09-17T22:49:13.649Z,36.53
2022-09-17T22:54:20.727Z,35.70
2022-09-17T22:59:26.674Z,35.67
2022-09-17T23:04:32.292Z,38.33
2022-09-17T23:09:38.098Z,39.92
2022-09-17T23:14:43.661Z,42.20
2022-09-17T23:19:49.526Z,38.05
2022-09-17T23:24:55.578Z,42.10
2022-09-17T23:30:01.132Z,41.10
2022-09-17T23:35:06.954Z,45.80
2022-09-17T23:40:13.012Z,42.72
2022-09-17T23:45:22.452Z,45.80
2022-09-17T23:50:28.445Z,37.67
2022-09-17T23:55:33.974Z,43.75
